sensor_id;sensor_type;location;lat;lon;timestamp;pressure;altitude;pressure_sealevel;temperature;humidity
71666;BME280;59503;53.486;10.196;2023-06-26T00:00:11;101421.91;;;20.63;100.00
71666;BME280;59503;53.486;10.196;2023-06-26T00:02:37;101425.56;;;20.57;100.00
71666;BME280;59503;53.486;10.196;2023-06-26T00:05:03;101416.22;;;20.47;100.00
71666;BME280;59503;53.486;10.196;2023-06-26T00:07:30;101420.59;;;20.41;100.00
71666;BME280;59503;53.486;10.196;2023-06-26T00:09:58;101417.13;;;20.37;100.00
71666;BME280;59503;53.486;10.196;2023-06-26T00:12:24;101426.25;;;20.31;100.00
71666;BME280;59503;53.486;10.196;2023-06-26T00:14:49;101414.50;;;20.23;100.00
71666;BME280;59503;53.486;10.196;2023-06-26T00:17:15;101416.53;;;20.19;100.00
71666;BME280;59503;53.486;10.196;2023-06-26T00:19:40;101414.19;;;20.14;100.00
71666;BME280;59503;53.486;10.196;2023-06-26T00:22:06;101411.91;;;20.06;100.00
71666;BME280;59503;53.486;10.196;2023-06-26T00:24:31;101407.28;;;19.96;100.00
71666;BME280;59503;53.486;10.196;2023-06-26T00:26:56;101408.88;;;19.93;100.00
71666;BME280;59503;53.486;10.196;2023-06-26T00:29:23;101412.84;;;19.89;100.00
71666;BME280;59503;53.486;10.196;2023-06-26T00:31:48;101406.56;;;19.85;100.00
71666;BME280;59503;53.486;10.196;2023-06-26T00:34:14;101411.78;;;19.79;100.00
71666;BME280;59503;53.486;10.196;2023-06-26T00:36:40;101412.91;;;19.82;100.00
71666;BME280;59503;53.486;10.196;2023-06-26T00:39:09;101407.81;;;19.80;100.00
71666;BME280;59503;53.486;10.196;2023-06-26T00:41:36;101410.56;;;19.80;100.00
71666;BME280;59503;53.486;10.196;2023-06-26T00:44:02;101401.19;;;19.74;100.00
71666;BME280;59503;53.486;10.196;2023-06-26T00:46:27;101397.28;;;19.68;100.00
71666;BME280;59503;53.486;10.196;2023-06-26T00:48:54;101398.88;;;19.65;100.00
71666;BME280;59503;53.486;10.196;2023-06-26T00:51:20;101387.84;;;19.65;100.00
71666;BME280;59503;53.486;10.196;2023-06-26T00:53:45;101389.75;;;19.72;100.00
71666;BME280;59503;53.486;10.196;2023-06-26T00:56:11;101384.66;;;19.70;100.00
71666;BME280;59503;53.486;10.196;2023-06-26T00:58:37;101376.75;;;19.69;100.00
71666;BME280;59503;53.486;10.196;2023-06-26T01:01:02;101381.09;;;19.70;100.00
71666;BME280;59503;53.486;10.196;2023-06-26T01:03:30;101370.53;;;19.61;100.00
71666;BME280;59503;53.486;10.196;2023-06-26T01:05:58;101376.44;;;19.63;100.00
71666;BME280;59503;53.486;10.196;2023-06-26T01:08:25;101374.50;;;19.60;100.00
71666;BME280;59503;53.486;10.196;2023-06-26T01:10:51;101377.28;;;19.57;100.00
71666;BME280;59503;53.486;10.196;2023-06-26T01:13:17;101376.09;;;19.54;100.00
71666;BME280;59503;53.486;10.196;2023-06-26T01:15:42;101379.31;;;19.49;100.00
71666;BME280;59503;53.486;10.196;2023-06-26T01:18:08;101372.22;;;19.48;100.00
71666;BME280;59503;53.486;10.196;2023-06-26T01:20:38;101369.06;;;19.50;100.00
71666;BME280;59503;53.486;10.196;2023-06-26T01:23:14;101375.00;;;19.48;100.00
71666;BME280;59503;53.486;10.196;2023-06-26T01:26:05;101364.41;;;19.40;100.00
71666;BME280;59503;53.486;10.196;2023-06-26T01:28:33;101361.34;;;19.31;100.00
71666;BME280;59503;53.486;10.196;2023-06-26T01:31:00;101364.47;;;19.33;100.00
71666;BME280;59503;53.486;10.196;2023-06-26T01:33:26;101368.78;;;19.34;100.00
71666;BME280;59503;53.486;10.196;2023-06-26T01:35:52;101365.25;;;19.33;100.00
71666;BME280;59503;53.486;10.196;2023-06-26T01:38:19;101360.91;;;19.36;100.00
71666;BME280;59503;53.486;10.196;2023-06-26T01:40:46;101363.25;;;19.37;100.00
71666;BME280;59503;53.486;10.196;2023-06-26T01:49:21;101353.81;;;19.38;100.00
71666;BME280;59503;53.486;10.196;2023-06-26T01:52:19;101349.09;;;19.35;100.00
71666;BME280;59503;53.486;10.196;2023-06-26T01:55:07;101343.88;;;19.44;100.00
71666;BME280;59503;53.486;10.196;2023-06-26T01:57:35;101341.56;;;19.39;100.00
71666;BME280;59503;53.486;10.196;2023-06-26T02:00:02;101332.91;;;19.37;100.00
71666;BME280;59503;53.486;10.196;2023-06-26T02:02:31;101332.91;;;19.37;100.00
71666;BME280;59503;53.486;10.196;2023-06-26T02:04:56;101331.78;;;19.35;100.00
71666;BME280;59503;53.486;10.196;2023-06-26T02:07:22;101320.34;;;19.33;100.00
71666;BME280;59503;53.486;10.196;2023-06-26T02:09:47;101321.19;;;19.26;100.00
71666;BME280;59503;53.486;10.196;2023-06-26T02:12:13;101321.22;;;19.19;100.00
71666;BME280;59503;53.486;10.196;2023-06-26T02:14:39;101312.25;;;19.12;100.00
71666;BME280;59503;53.486;10.196;2023-06-26T02:17:04;101313.06;;;19.05;100.00
71666;BME280;59503;53.486;10.196;2023-06-26T02:19:29;101312.31;;;19.01;100.00
71666;BME280;59503;53.486;10.196;2023-06-26T02:21:55;101324.16;;;18.98;100.00
71666;BME280;59503;53.486;10.196;2023-06-26T02:24:20;101317.09;;;18.94;100.00
71666;BME280;59503;53.486;10.196;2023-06-26T02:26:46;101321.44;;;18.91;100.00
71666;BME280;59503;53.486;10.196;2023-06-26T02:29:12;101317.16;;;18.83;100.00
71666;BME280;59503;53.486;10.196;2023-06-26T02:31:37;101312.44;;;18.84;100.00
71666;BME280;59503;53.486;10.196;2023-06-26T02:34:03;101316.78;;;18.81;100.00
71666;BME280;59503;53.486;10.196;2023-06-26T02:36:29;101310.47;;;18.84;100.00
71666;BME280;59503;53.486;10.196;2023-06-26T02:38:54;101302.59;;;18.83;100.00
71666;BME280;59503;53.486;10.196;2023-06-26T02:41:20;101303.72;;;18.92;100.00
71666;BME280;59503;53.486;10.196;2023-06-26T02:43:45;101304.88;;;18.95;100.00
71666;BME280;59503;53.486;10.196;2023-06-26T02:46:10;101300.19;;;18.92;100.00
71666;BME280;59503;53.486;10.196;2023-06-26T02:48:36;101294.72;;;18.85;100.00
71666;BME280;59503;53.486;10.196;2023-06-26T02:51:01;101294.72;;;18.85;100.00
71666;BME280;59503;53.486;10.196;2023-06-26T02:53:27;101289.25;;;18.81;100.00
71666;BME280;59503;53.486;10.196;2023-06-26T02:55:52;101294.38;;;18.76;100.00
71666;BME280;59503;53.486;10.196;2023-06-26T02:58:17;101294.38;;;18.76;100.00
71666;BME280;59503;53.486;10.196;2023-06-26T03:00:44;101296.38;;;18.72;100.00
71666;BME280;59503;53.486;10.196;2023-06-26T03:03:10;101283.81;;;18.67;100.00
71666;BME280;59503;53.486;10.196;2023-06-26T03:05:35;101285.41;;;18.65;100.00
71666;BME280;59503;53.486;10.196;2023-06-26T03:08:02;101293.25;;;18.73;100.00
71666;BME280;59503;53.486;10.196;2023-06-26T03:10:28;101286.94;;;18.73;100.00
71666;BME280;59503;53.486;10.196;2023-06-26T03:12:53;101291.63;;;18.76;100.00
71666;BME280;59503;53.486;10.196;2023-06-26T03:15:19;101288.88;;;18.76;100.00
71666;BME280;59503;53.486;10.196;2023-06-26T03:17:44;101288.44;;;18.81;100.00
71666;BME280;59503;53.486;10.196;2023-06-26T03:20:10;101279.03;;;18.78;100.00
71666;BME280;59503;53.486;10.196;2023-06-26T03:22:36;101280.63;;;18.76;100.00
71666;BME280;59503;53.486;10.196;2023-06-26T03:25:02;101285.72;;;18.74;100.00
71666;BME280;59503;53.486;10.196;2023-06-26T03:27:28;101283.78;;;18.74;100.00
71666;BME280;59503;53.486;10.196;2023-06-26T03:29:53;101282.56;;;18.79;100.00
71666;BME280;59503;53.486;10.196;2023-06-26T03:32:19;101271.94;;;18.77;100.00
71666;BME280;59503;53.486;10.196;2023-06-26T03:34:44;101278.97;;;18.82;100.00
71666;BME280;59503;53.486;10.196;2023-06-26T03:37:10;101283.31;;;18.86;100.00
71666;BME280;59503;53.486;10.196;2023-06-26T03:39:36;101273.41;;;18.92;100.00
71666;BME280;59503;53.486;10.196;2023-06-26T03:42:01;101279.69;;;18.96;100.00
71666;BME280;59503;53.486;10.196;2023-06-26T03:44:27;101270.63;;;18.96;100.00
71666;BME280;59503;53.486;10.196;2023-06-26T03:46:53;101285.97;;;18.97;100.00
71666;BME280;59503;53.486;10.196;2023-06-26T03:49:19;101277.31;;;18.98;100.00
71666;BME280;59503;53.486;10.196;2023-06-26T03:51:45;101267.06;;;18.99;100.00
71666;BME280;59503;53.486;10.196;2023-06-26T03:54:10;101264.25;;;19.06;100.00
71666;BME280;59503;53.486;10.196;2023-06-26T03:56:36;101267.75;;;19.10;100.00
71666;BME280;59503;53.486;10.196;2023-06-26T03:59:01;101253.56;;;19.11;100.00
71666;BME280;59503;53.486;10.196;2023-06-26T04:01:27;101248.78;;;19.15;100.00
71666;BME280;59503;53.486;10.196;2023-06-26T04:03:53;101255.06;;;19.19;100.00
71666;BME280;59503;53.486;10.196;2023-06-26T04:06:19;101244.03;;;19.23;100.00
71666;BME280;59503;53.486;10.196;2023-06-26T04:08:44;101249.50;;;19.30;100.00
71666;BME280;59503;53.486;10.196;2023-06-26T04:11:10;101246.69;;;19.37;100.00
71666;BME280;59503;53.486;10.196;2023-06-26T04:13:35;101238.00;;;19.38;100.00
71666;BME280;59503;53.486;10.196;2023-06-26T04:16:01;101234.47;;;19.34;100.00
71666;BME280;59503;53.486;10.196;2023-06-26T04:18:27;101249.00;;;19.42;100.00
71666;BME280;59503;53.486;10.196;2023-06-26T04:21:05;101248.59;;;19.43;100.00
71666;BME280;59503;53.486;10.196;2023-06-26T04:23:32;101232.00;;;19.47;100.00
71666;BME280;59503;53.486;10.196;2023-06-26T04:25:57;101235.47;;;19.51;100.00
71666;BME280;59503;53.486;10.196;2023-06-26T04:28:24;101233.47;;;19.55;100.00
71666;BME280;59503;53.486;10.196;2023-06-26T04:30:49;101231.88;;;19.57;100.00
71666;BME280;59503;53.486;10.196;2023-06-26T04:33:14;101229.91;;;19.58;100.00
71666;BME280;59503;53.486;10.196;2023-06-26T04:35:40;101235.72;;;19.67;100.00
71666;BME280;59503;53.486;10.196;2023-06-26T04:38:06;101230.19;;;19.67;100.00
71666;BME280;59503;53.486;10.196;2023-06-26T04:40:31;101227.38;;;19.74;100.00
71666;BME280;59503;53.486;10.196;2023-06-26T04:42:56;101225.38;;;19.74;100.00
71666;BME280;59503;53.486;10.196;2023-06-26T04:45:22;101226.09;;;19.82;100.00
71666;BME280;59503;53.486;10.196;2023-06-26T04:47:47;101220.16;;;19.84;100.00
71666;BME280;59503;53.486;10.196;2023-06-26T04:50:13;101222.41;;;19.92;100.00
71666;BME280;59503;53.486;10.196;2023-06-26T04:52:38;101209.63;;;20.05;100.00
71666;BME280;59503;53.486;10.196;2023-06-26T04:55:04;101214.31;;;20.08;100.00
71666;BME280;59503;53.486;10.196;2023-06-26T04:57:29;101211.47;;;20.15;100.00
71666;BME280;59503;53.486;10.196;2023-06-26T04:59:55;101211.38;;;20.22;100.00
71666;BME280;59503;53.486;10.196;2023-06-26T05:02:21;101203.34;;;20.31;100.00
71666;BME280;59503;53.486;10.196;2023-06-26T05:04:47;101201.34;;;20.35;100.00
71666;BME280;59503;53.486;10.196;2023-06-26T05:07:13;101200.50;;;20.38;100.00
71666;BME280;59503;53.486;10.196;2023-06-26T05:09:39;101207.13;;;20.44;100.00
71666;BME280;59503;53.486;10.196;2023-06-26T05:12:04;101204.59;;;20.53;100.00
71666;BME280;59503;53.486;10.196;2023-06-26T05:14:30;101202.94;;;20.59;100.00
71666;BME280;59503;53.486;10.196;2023-06-26T05:16:55;101193.28;;;20.71;100.00
71666;BME280;59503;53.486;10.196;2023-06-26T05:19:20;101196.66;;;20.82;100.00
71666;BME280;59503;53.486;10.196;2023-06-26T05:21:47;101189.78;;;20.90;100.00
71666;BME280;59503;53.486;10.196;2023-06-26T05:24:13;101185.75;;;20.98;100.00
71666;BME280;59503;53.486;10.196;2023-06-26T05:26:39;101180.75;;;21.13;100.00
71666;BME280;59503;53.486;10.196;2023-06-26T05:29:04;101182.88;;;21.25;100.00
71666;BME280;59503;53.486;10.196;2023-06-26T05:31:32;101176.25;;;21.42;100.00
71666;BME280;59503;53.486;10.196;2023-06-26T05:33:59;101177.16;;;21.55;100.00
71666;BME280;59503;53.486;10.196;2023-06-26T05:36:27;101169.88;;;21.84;97.96
71666;BME280;59503;53.486;10.196;2023-06-26T05:38:53;101168.16;;;21.90;94.04
71666;BME280;59503;53.486;10.196;2023-06-26T05:41:21;101164.72;;;22.02;95.57
71666;BME280;59503;53.486;10.196;2023-06-26T05:43:46;101160.28;;;22.24;95.06
71666;BME280;59503;53.486;10.196;2023-06-26T05:46:12;101167.41;;;22.41;94.95
71666;BME280;59503;53.486;10.196;2023-06-26T05:48:37;101163.78;;;22.60;91.71
71666;BME280;59503;53.486;10.196;2023-06-26T05:51:03;101164.00;;;22.82;90.54
71666;BME280;59503;53.486;10.196;2023-06-26T05:53:29;101157.25;;;22.99;89.58
71666;BME280;59503;53.486;10.196;2023-06-26T05:55:55;101158.94;;;23.25;88.81
71666;BME280;59503;53.486;10.196;2023-06-26T05:58:21;101147.16;;;23.50;85.64
71666;BME280;59503;53.486;10.196;2023-06-26T06:00:48;101147.28;;;23.59;84.78
71666;BME280;59503;53.486;10.196;2023-06-26T06:03:13;101149.69;;;23.85;84.00
71666;BME280;59503;53.486;10.196;2023-06-26T06:05:39;101152.28;;;24.05;82.59
71666;BME280;59503;53.486;10.196;2023-06-26T06:08:04;101148.69;;;24.29;81.71
71666;BME280;59503;53.486;10.196;2023-06-26T06:10:30;101145.25;;;24.38;78.95
71666;BME280;59503;53.486;10.196;2023-06-26T06:12:55;101144.56;;;24.72;78.47
71666;BME280;59503;53.486;10.196;2023-06-26T06:15:21;101145.06;;;24.92;77.58
71666;BME280;59503;53.486;10.196;2023-06-26T06:17:46;101140.75;;;25.12;75.97
71666;BME280;59503;53.486;10.196;2023-06-26T06:20:11;101140.13;;;25.30;74.42
71666;BME280;59503;53.486;10.196;2023-06-26T06:22:37;101141.84;;;25.49;72.90
71666;BME280;59503;53.486;10.196;2023-06-26T06:25:02;101131.59;;;25.67;72.03
71666;BME280;59503;53.486;10.196;2023-06-26T06:27:28;101134.63;;;25.82;71.38
71666;BME280;59503;53.486;10.196;2023-06-26T06:29:54;101135.91;;;25.99;70.75
71666;BME280;59503;53.486;10.196;2023-06-26T06:32:19;101125.97;;;26.20;68.40
71666;BME280;59503;53.486;10.196;2023-06-26T06:34:45;101128.06;;;26.37;67.99
71666;BME280;59503;53.486;10.196;2023-06-26T06:37:10;101127.00;;;26.53;66.75
71666;BME280;59503;53.486;10.196;2023-06-26T06:39:35;101136.00;;;26.57;66.30
71666;BME280;59503;53.486;10.196;2023-06-26T06:42:01;101120.50;;;26.65;68.71
71666;BME280;59503;53.486;10.196;2023-06-26T06:44:26;101126.75;;;26.87;65.69
71666;BME280;59503;53.486;10.196;2023-06-26T06:46:52;101117.00;;;27.01;65.29
71666;BME280;59503;53.486;10.196;2023-06-26T06:49:18;101114.69;;;26.99;64.89
71666;BME280;59503;53.486;10.196;2023-06-26T06:51:44;101108.44;;;27.22;64.43
71666;BME280;59503;53.486;10.196;2023-06-26T06:54:09;101106.31;;;27.08;60.51
71666;BME280;59503;53.486;10.196;2023-06-26T06:56:35;101103.97;;;26.88;61.82
71666;BME280;59503;53.486;10.196;2023-06-26T06:59:00;101093.75;;;27.13;60.98
71666;BME280;59503;53.486;10.196;2023-06-26T07:01:25;101088.94;;;27.31;61.67
71666;BME280;59503;53.486;10.196;2023-06-26T07:03:51;101080.66;;;27.55;59.80
71666;BME280;59503;53.486;10.196;2023-06-26T07:06:16;101088.78;;;27.17;58.41
71666;BME280;59503;53.486;10.196;2023-06-26T07:08:41;101080.25;;;27.29;60.54
71666;BME280;59503;53.486;10.196;2023-06-26T07:11:07;101074.59;;;27.65;60.66
71666;BME280;59503;53.486;10.196;2023-06-26T07:13:32;101083.38;;;27.82;58.23
71666;BME280;59503;53.486;10.196;2023-06-26T07:15:58;101073.94;;;27.70;56.65
71666;BME280;59503;53.486;10.196;2023-06-26T07:18:23;101087.22;;;27.84;57.75
71666;BME280;59503;53.486;10.196;2023-06-26T07:20:48;101084.94;;;28.16;56.61
71666;BME280;59503;53.486;10.196;2023-06-26T07:23:14;101077.84;;;28.05;58.08
71666;BME280;59503;53.486;10.196;2023-06-26T07:25:39;101073.16;;;28.35;56.15
71666;BME280;59503;53.486;10.196;2023-06-26T07:28:12;101065.84;;;28.61;53.63
71666;BME280;59503;53.486;10.196;2023-06-26T07:30:38;101066.63;;;28.62;55.01
71666;BME280;59503;53.486;10.196;2023-06-26T07:33:03;101065.84;;;28.61;54.59
71666;BME280;59503;53.486;10.196;2023-06-26T07:35:29;101063.22;;;28.81;53.67
71666;BME280;59503;53.486;10.196;2023-06-26T07:37:54;101060.78;;;29.12;53.65
71666;BME280;59503;53.486;10.196;2023-06-26T07:40:19;101066.78;;;29.20;51.85
71666;BME280;59503;53.486;10.196;2023-06-26T07:42:45;101074.09;;;29.32;52.63
71666;BME280;59503;53.486;10.196;2023-06-26T07:45:11;101061.84;;;29.44;51.80
71666;BME280;59503;53.486;10.196;2023-06-26T07:47:38;101071.97;;;29.27;53.27
71666;BME280;59503;53.486;10.196;2023-06-26T07:50:04;101074.91;;;29.18;52.47
71666;BME280;59503;53.486;10.196;2023-06-26T07:52:29;101078.22;;;28.93;53.52
71666;BME280;59503;53.486;10.196;2023-06-26T07:54:58;101058.00;;;29.42;53.23
71666;BME280;59503;53.486;10.196;2023-06-26T07:57:23;101065.41;;;29.88;52.23
71666;BME280;59503;53.486;10.196;2023-06-26T07:59:50;101062.72;;;30.14;50.23
71666;BME280;59503;53.486;10.196;2023-06-26T08:02:15;101059.38;;;30.50;50.50
71666;BME280;59503;53.486;10.196;2023-06-26T08:04:41;101066.91;;;30.59;48.28
71666;BME280;59503;53.486;10.196;2023-06-26T08:07:06;101059.72;;;30.78;46.54
71666;BME280;59503;53.486;10.196;2023-06-26T08:09:32;101069.19;;;31.00;46.24
71666;BME280;59503;53.486;10.196;2023-06-26T08:11:58;101054.31;;;30.94;46.39
71666;BME280;59503;53.486;10.196;2023-06-26T08:14:24;101050.34;;;30.81;45.45
71666;BME280;59503;53.486;10.196;2023-06-26T08:16:50;101054.34;;;30.54;46.58
71666;BME280;59503;53.486;10.196;2023-06-26T08:19:16;101052.03;;;30.32;48.38
71666;BME280;59503;53.486;10.196;2023-06-26T08:21:43;101047.78;;;30.02;49.42
71666;BME280;59503;53.486;10.196;2023-06-26T08:24:09;101020.38;;;29.63;49.38
71666;BME280;59503;53.486;10.196;2023-06-26T08:26:35;101027.31;;;29.82;49.53
71666;BME280;59503;53.486;10.196;2023-06-26T08:29:01;101017.25;;;29.90;48.30
71666;BME280;59503;53.486;10.196;2023-06-26T08:31:33;101028.59;;;30.56;46.78
71666;BME280;59503;53.486;10.196;2023-06-26T08:34:00;101027.19;;;30.66;47.30
71666;BME280;59503;53.486;10.196;2023-06-26T08:36:25;101015.38;;;30.82;47.06
71666;BME280;59503;53.486;10.196;2023-06-26T08:38:50;101019.41;;;31.26;45.31
71666;BME280;59503;53.486;10.196;2023-06-26T08:41:16;101013.44;;;31.81;45.62
71666;BME280;59503;53.486;10.196;2023-06-26T08:43:41;101010.81;;;32.09;41.95
71666;BME280;59503;53.486;10.196;2023-06-26T08:46:07;101018.81;;;31.85;43.97
71666;BME280;59503;53.486;10.196;2023-06-26T08:48:33;101029.31;;;31.84;44.58
71666;BME280;59503;53.486;10.196;2023-06-26T08:51:07;101025.59;;;31.67;43.68
71666;BME280;59503;53.486;10.196;2023-06-26T08:53:47;101022.50;;;31.96;42.85
71666;BME280;59503;53.486;10.196;2023-06-26T08:56:16;101027.22;;;32.16;42.26
71666;BME280;59503;53.486;10.196;2023-06-26T08:58:43;101025.09;;;32.47;43.23
71666;BME280;59503;53.486;10.196;2023-06-26T09:01:09;101031.22;;;32.46;41.38
71666;BME280;59503;53.486;10.196;2023-06-26T09:03:35;101022.47;;;32.38;41.76
71666;BME280;59503;53.486;10.196;2023-06-26T09:06:00;101033.56;;;32.11;43.22
71666;BME280;59503;53.486;10.196;2023-06-26T09:08:26;101026.91;;;32.08;42.81
71666;BME280;59503;53.486;10.196;2023-06-26T09:10:52;101033.56;;;32.11;44.22
71666;BME280;59503;53.486;10.196;2023-06-26T09:13:18;101047.81;;;31.96;45.40
71666;BME280;59503;53.486;10.196;2023-06-26T09:15:45;101049.19;;;31.75;44.51
71666;BME280;59503;53.486;10.196;2023-06-26T09:18:11;101049.19;;;31.75;45.35
71666;BME280;59503;53.486;10.196;2023-06-26T09:20:37;101066.97;;;31.61;45.40
71666;BME280;59503;53.486;10.196;2023-06-26T09:23:03;101076.84;;;31.51;44.19
71666;BME280;59503;53.486;10.196;2023-06-26T09:25:28;101080.22;;;30.64;46.26
71666;BME280;59503;53.486;10.196;2023-06-26T09:27:55;101076.03;;;30.54;46.92
71666;BME280;59503;53.486;10.196;2023-06-26T09:30:20;101089.34;;;30.59;45.62
71666;BME280;59503;53.486;10.196;2023-06-26T09:32:46;101082.13;;;30.52;47.85
71666;BME280;59503;53.486;10.196;2023-06-26T09:35:12;101086.25;;;30.77;46.42
71666;BME280;59503;53.486;10.196;2023-06-26T09:37:39;101084.16;;;30.92;47.51
71666;BME280;59503;53.486;10.196;2023-06-26T09:40:05;101073.50;;;30.56;47.68
71666;BME280;59503;53.486;10.196;2023-06-26T09:42:32;101079.34;;;30.17;46.28
71666;BME280;59503;53.486;10.196;2023-06-26T09:44:57;101088.59;;;29.74;48.56
71666;BME280;59503;53.486;10.196;2023-06-26T09:47:23;101093.06;;;29.66;49.61
71666;BME280;59503;53.486;10.196;2023-06-26T09:49:49;101082.22;;;29.59;50.19
71666;BME280;59503;53.486;10.196;2023-06-26T09:52:16;101086.28;;;29.58;52.39
71666;BME280;59503;53.486;10.196;2023-06-26T09:54:42;101085.63;;;29.63;51.38
71666;BME280;59503;53.486;10.196;2023-06-26T09:57:13;101089.38;;;29.31;51.03
71666;BME280;59503;53.486;10.196;2023-06-26T09:59:39;101099.34;;;28.94;52.23
71666;BME280;59503;53.486;10.196;2023-06-26T10:02:05;101104.50;;;28.72;55.63
71666;BME280;59503;53.486;10.196;2023-06-26T10:04:31;101127.47;;;27.78;58.04
71666;BME280;59503;53.486;10.196;2023-06-26T10:06:58;101123.38;;;27.28;59.67
71666;BME280;59503;53.486;10.196;2023-06-26T10:09:24;101124.59;;;27.00;61.36
71666;BME280;59503;53.486;10.196;2023-06-26T10:12:03;101126.75;;;26.69;62.70
71666;BME280;59503;53.486;10.196;2023-06-26T10:14:34;101134.31;;;26.59;62.60
71666;BME280;59503;53.486;10.196;2023-06-26T10:17:04;101138.28;;;26.40;62.70
71666;BME280;59503;53.486;10.196;2023-06-26T10:19:33;101132.00;;;26.18;62.45
71666;BME280;59503;53.486;10.196;2023-06-26T10:21:59;101142.34;;;26.09;64.01
71666;BME280;59503;53.486;10.196;2023-06-26T10:24:29;101159.34;;;26.02;65.36
71666;BME280;59503;53.486;10.196;2023-06-26T10:27:16;101163.97;;;25.52;67.59
71666;BME280;59503;53.486;10.196;2023-06-26T10:29:47;101199.28;;;25.21;71.10
71666;BME280;59503;53.486;10.196;2023-06-26T10:32:13;101206.75;;;25.12;73.72
71666;BME280;59503;53.486;10.196;2023-06-26T10:34:40;101231.50;;;23.81;100.00
71666;BME280;59503;53.486;10.196;2023-06-26T10:37:06;101248.50;;;22.61;100.00
71666;BME280;59503;53.486;10.196;2023-06-26T10:39:59;101262.44;;;21.40;100.00
71666;BME280;59503;53.486;10.196;2023-06-26T10:42:35;101264.19;;;20.81;100.00
71666;BME280;59503;53.486;10.196;2023-06-26T10:45:23;101252.25;;;20.34;100.00
71666;BME280;59503;53.486;10.196;2023-06-26T10:47:53;101256.69;;;20.25;100.00
71666;BME280;59503;53.486;10.196;2023-06-26T10:50:25;101259.56;;;20.18;100.00
71666;BME280;59503;53.486;10.196;2023-06-26T10:55:59;101250.28;;;20.01;100.00
71666;BME280;59503;53.486;10.196;2023-06-26T10:58:34;101249.84;;;20.03;100.00
71666;BME280;59503;53.486;10.196;2023-06-26T11:03:38;101259.91;;;19.86;100.00
71666;BME280;59503;53.486;10.196;2023-06-26T11:06:22;101255.97;;;19.87;100.00
71666;BME280;59503;53.486;10.196;2023-06-26T11:11:13;101244.69;;;19.74;100.00
71666;BME280;59503;53.486;10.196;2023-06-26T11:13:40;101242.72;;;19.75;100.00
71666;BME280;59503;53.486;10.196;2023-06-26T11:16:06;101256.34;;;19.89;100.00
71666;BME280;59503;53.486;10.196;2023-06-26T11:18:32;101260.97;;;19.99;100.00
71666;BME280;59503;53.486;10.196;2023-06-26T11:21:07;101272.81;;;20.30;100.00
71666;BME280;59503;53.486;10.196;2023-06-26T11:23:35;101274.09;;;20.52;100.00
71666;BME280;59503;53.486;10.196;2023-06-26T11:26:18;101272.94;;;20.76;100.00
71666;BME280;59503;53.486;10.196;2023-06-26T11:28:49;101275.22;;;21.08;100.00
71666;BME280;59503;53.486;10.196;2023-06-26T11:31:30;101275.38;;;20.97;100.00
71666;BME280;59503;53.486;10.196;2023-06-26T11:33:57;101286.66;;;21.33;100.00
71666;BME280;59503;53.486;10.196;2023-06-26T11:36:24;101290.16;;;21.37;100.00
71666;BME280;59503;53.486;10.196;2023-06-26T11:39:01;101291.09;;;21.04;100.00
71666;BME280;59503;53.486;10.196;2023-06-26T11:41:31;101296.06;;;21.12;100.00
71666;BME280;59503;53.486;10.196;2023-06-26T11:44:10;101296.88;;;21.36;100.00
71666;BME280;59503;53.486;10.196;2023-06-26T11:46:38;101303.91;;;21.40;100.00
71666;BME280;59503;53.486;10.196;2023-06-26T11:49:04;101305.66;;;21.77;100.00
71666;BME280;59503;53.486;10.196;2023-06-26T11:51:30;101298.16;;;22.52;100.00
71666;BME280;59503;53.486;10.196;2023-06-26T11:53:55;101314.94;;;22.81;100.00
71666;BME280;59503;53.486;10.196;2023-06-26T11:56:21;101321.41;;;22.58;100.00
71666;BME280;59503;53.486;10.196;2023-06-26T12:01:36;101329.28;;;22.40;100.00
71666;BME280;59503;53.486;10.196;2023-06-26T12:04:04;101335.69;;;21.98;100.00
71666;BME280;59503;53.486;10.196;2023-06-26T12:06:37;101337.03;;;21.90;100.00
71666;BME280;59503;53.486;10.196;2023-06-26T12:09:06;101336.09;;;22.16;100.00
71666;BME280;59503;53.486;10.196;2023-06-26T12:11:34;101339.22;;;22.93;100.00
71666;BME280;59503;53.486;10.196;2023-06-26T12:14:00;101328.34;;;23.34;100.00
71666;BME280;59503;53.486;10.196;2023-06-26T12:16:30;101340.22;;;23.51;100.00
71666;BME280;59503;53.486;10.196;2023-06-26T12:19:03;101342.31;;;23.30;100.00
71666;BME280;59503;53.486;10.196;2023-06-26T12:24:13;101341.31;;;22.14;100.00
71666;BME280;59503;53.486;10.196;2023-06-26T12:26:41;101349.41;;;22.05;100.00
71666;BME280;59503;53.486;10.196;2023-06-26T12:29:10;101356.91;;;21.85;100.00
71666;BME280;59503;53.486;10.196;2023-06-26T12:31:46;101347.56;;;21.75;100.00
71666;BME280;59503;53.486;10.196;2023-06-26T12:34:14;101348.53;;;22.08;100.00
71666;BME280;59503;53.486;10.196;2023-06-26T12:36:50;101351.94;;;22.55;96.23
71666;BME280;59503;53.486;10.196;2023-06-26T12:39:17;101344.63;;;23.00;91.93
71666;BME280;59503;53.486;10.196;2023-06-26T12:41:53;101350.38;;;23.57;95.92
71666;BME280;59503;53.486;10.196;2023-06-26T12:44:22;101350.81;;;23.40;87.99
71666;BME280;59503;53.486;10.196;2023-06-26T12:46:54;101366.19;;;23.08;89.09
71666;BME280;59503;53.486;10.196;2023-06-26T12:49:19;101356.31;;;23.07;84.06
71666;BME280;59503;53.486;10.196;2023-06-26T12:51:45;101362.38;;;22.67;83.67
71666;BME280;59503;53.486;10.196;2023-06-26T12:54:11;101366.03;;;22.99;82.13